createdAt,value
2019-03-11T00:01:17.132Z,2.50
2019-03-11T00:03:45.981Z,2.50
2019-03-11T00:06:14.803Z,2.50
2019-03-11T00:08:43.635Z,2.50
2019-03-11T00:11:12.484Z,2.50
2019-03-11T00:13:41.340Z,2.50
2019-03-11T00:16:10.230Z,2.50
2019-03-11T00:18:39.100Z,2.50
2019-03-11T00:21:07.903Z,2.50
2019-03-11T00:23:36.783Z,2.50
2019-03-11T00:26:05.722Z,2.50
2019-03-11T00:28:34.571Z,2.50
2019-03-11T00:31:03.409Z,2.50
2019-03-11T00:33:32.265Z,2.50
2019-03-11T00:36:01.156Z,2.50
2019-03-11T00:38:30.156Z,2.50
2019-03-11T00:40:59.067Z,2.50
2019-03-11T00:43:27.922Z,2.50
2019-03-11T00:45:56.759Z,2.50
2019-03-11T00:48:25.595Z,2.50
2019-03-11T00:50:54.446Z,2.50
2019-03-11T00:53:23.355Z,2.50
2019-03-11T00:55:52.201Z,2.50
2019-03-11T00:58:21.306Z,2.50
2019-03-11T01:00:50.291Z,2.60
2019-03-11T01:03:19.139Z,2.60
2019-03-11T01:05:48.091Z,2.60
2019-03-11T01:08:17.023Z,2.60
2019-03-11T01:10:45.961Z,2.50
2019-03-11T01:13:14.880Z,2.60
2019-03-11T01:15:43.742Z,2.50
2019-03-11T01:18:12.754Z,2.50
2019-03-11T01:20:41.629Z,2.60
2019-03-11T01:23:10.641Z,2.60
2019-03-11T01:25:39.661Z,2.50
2019-03-11T01:28:08.503Z,2.50
2019-03-11T01:30:37.465Z,2.50
2019-03-11T01:33:06.323Z,2.50
2019-03-11T01:35:35.295Z,2.50
2019-03-11T01:38:04.098Z,2.50
2019-03-11T01:40:32.961Z,2.50
2019-03-11T01:43:01.779Z,2.50
2019-03-11T01:45:30.700Z,2.50
2019-03-11T01:47:59.564Z,2.50
2019-03-11T01:50:28.507Z,2.50
2019-03-11T01:52:57.354Z,2.40
2019-03-11T01:55:26.207Z,2.40
2019-03-11T01:57:55.105Z,2.40
2019-03-11T02:00:24.033Z,2.40
2019-03-11T02:02:53.015Z,2.40
2019-03-11T02:05:21.937Z,2.40
2019-03-11T02:07:50.915Z,2.40
2019-03-11T02:10:19.947Z,2.40
2019-03-11T02:12:49.051Z,2.40
2019-03-11T02:15:18.194Z,2.40
2019-03-11T02:17:47.284Z,2.50
2019-03-11T02:20:16.469Z,2.50
2019-03-11T02:22:45.569Z,2.50
2019-03-11T02:25:14.750Z,2.50
2019-03-11T02:27:43.668Z,2.50
2019-03-11T02:30:13.024Z,2.50
2019-03-11T02:32:42.011Z,2.50
2019-03-11T02:35:11.121Z,2.50
2019-03-11T02:37:40.031Z,2.60
2019-03-11T02:40:09.922Z,2.60
2019-03-11T02:42:38.916Z,2.60
2019-03-11T02:45:08.258Z,2.60
2019-03-11T02:47:37.123Z,2.60
2019-03-11T02:50:06.114Z,2.60
2019-03-11T02:52:35.009Z,2.60
2019-03-11T02:55:04.382Z,2.60
2019-03-11T02:57:33.304Z,2.60
2019-03-11T03:00:02.384Z,2.60
2019-03-11T03:02:37.963Z,2.50
2019-03-11T03:05:26.249Z,2.50
2019-03-11T03:07:55.199Z,2.40
2019-03-11T03:10:24.149Z,2.40
2019-03-11T03:12:53.106Z,2.40
2019-03-11T03:15:22.132Z,2.30
2019-03-11T03:17:51.182Z,2.20
2019-03-11T03:20:20.156Z,2.20
2019-03-11T03:22:49.202Z,2.10
2019-03-11T03:25:32.225Z,2.10
2019-03-11T03:27:49.027Z,2.00
2019-03-11T03:30:18.203Z,2.00
2019-03-11T03:32:47.212Z,2.00
2019-03-11T03:35:16.319Z,2.00
2019-03-11T03:37:45.253Z,2.00
2019-03-11T03:40:14.625Z,2.00
2019-03-11T03:42:43.652Z,2.10
2019-03-11T03:45:32.976Z,2.10
2019-03-11T03:48:02.163Z,2.10
2019-03-11T03:50:32.601Z,2.20
2019-03-11T03:53:01.556Z,2.20
2019-03-11T03:55:30.497Z,2.30
2019-03-11T03:57:59.425Z,2.20
2019-03-11T04:00:28.439Z,2.20
2019-03-11T04:02:57.498Z,2.20
2019-03-11T04:05:26.526Z,2.20
2019-03-11T04:07:55.571Z,2.20
2019-03-11T04:10:24.715Z,2.20
2019-03-11T04:12:53.750Z,2.10
2019-03-11T04:15:22.852Z,2.10
2019-03-11T04:17:51.929Z,2.10
2019-03-11T04:20:21.058Z,2.10
2019-03-11T04:22:50.204Z,2.10
2019-03-11T04:25:19.203Z,2.00
2019-03-11T04:27:48.204Z,2.00
2019-03-11T04:30:21.768Z,2.00
2019-03-11T04:32:50.729Z,1.90
2019-03-11T04:35:19.780Z,1.90
2019-03-11T04:37:48.751Z,1.90
2019-03-11T04:40:18.337Z,2.00
2019-03-11T04:42:47.302Z,2.00
2019-03-11T04:45:16.421Z,2.00
2019-03-11T04:47:45.517Z,2.00
2019-03-11T04:50:14.784Z,2.00
2019-03-11T04:52:43.931Z,2.00
2019-03-11T04:55:13.220Z,2.10
2019-03-11T04:57:49.866Z,2.10
2019-03-11T05:00:20.887Z,2.10
2019-03-11T05:02:49.709Z,2.10
2019-03-11T05:05:18.666Z,2.10
2019-03-11T05:07:47.654Z,2.10
2019-03-11T05:10:16.700Z,2.10
2019-03-11T05:12:45.647Z,2.10
2019-03-11T05:15:14.697Z,2.10
2019-03-11T05:17:43.788Z,2.10
2019-03-11T05:20:13.217Z,2.10
2019-03-11T05:22:42.156Z,2.00
2019-03-11T05:25:11.358Z,2.00
2019-03-11T05:27:40.671Z,2.00
2019-03-11T05:30:12.206Z,2.00
2019-03-11T05:32:41.062Z,2.00
2019-03-11T05:35:10.101Z,2.00
2019-03-11T05:37:38.963Z,2.00
2019-03-11T05:40:08.550Z,2.00
2019-03-11T05:42:37.532Z,2.00
2019-03-11T05:45:07.357Z,2.00
2019-03-11T05:47:36.228Z,2.00
2019-03-11T05:50:05.666Z,2.00
2019-03-11T05:52:34.584Z,2.10
2019-03-11T05:55:03.780Z,2.10
2019-03-11T05:57:32.669Z,2.10
2019-03-11T06:00:01.572Z,2.10
2019-03-11T06:02:30.419Z,2.10
2019-03-11T06:04:59.268Z,2.20
2019-03-11T06:07:28.119Z,2.20
2019-03-11T06:09:56.994Z,2.20
2019-03-11T06:12:25.951Z,2.20
2019-03-11T06:14:54.791Z,2.30
2019-03-11T06:17:23.650Z,2.30
2019-03-11T06:20:01.551Z,2.30
2019-03-11T06:22:32.135Z,2.30
2019-03-11T06:25:01.076Z,2.30
2019-03-11T06:27:29.935Z,2.30
2019-03-11T06:29:58.858Z,2.40
2019-03-11T06:32:27.778Z,2.40
2019-03-11T06:34:56.705Z,2.40
2019-03-11T06:37:25.627Z,2.40
2019-03-11T06:39:54.564Z,2.50
2019-03-11T06:42:23.456Z,2.50
2019-03-11T06:44:52.319Z,2.50
2019-03-11T06:47:21.219Z,2.50
2019-03-11T06:49:50.065Z,2.50
2019-03-11T06:52:19.075Z,2.50
2019-03-11T06:54:47.966Z,2.50
2019-03-11T06:57:16.788Z,2.50
2019-03-11T06:59:45.636Z,2.50
2019-03-11T07:02:14.701Z,2.50
2019-03-11T07:04:43.601Z,2.50
2019-03-11T07:07:12.426Z,2.50
2019-03-11T07:09:41.303Z,2.50
2019-03-11T07:12:10.127Z,2.70
2019-03-11T07:14:38.965Z,2.80
2019-03-11T07:17:07.871Z,2.90
2019-03-11T07:19:36.800Z,3.00
2019-03-11T07:22:05.795Z,3.00
2019-03-11T07:24:34.630Z,3.00
2019-03-11T07:27:03.536Z,3.10
2019-03-11T07:29:32.404Z,3.20
2019-03-11T07:32:01.500Z,3.20
2019-03-11T07:34:30.436Z,3.30
2019-03-11T07:36:59.397Z,3.30
2019-03-11T07:39:28.321Z,3.30
2019-03-11T07:41:57.142Z,3.20
2019-03-11T07:44:25.998Z,3.20
2019-03-11T07:46:54.855Z,3.10
2019-03-11T07:49:23.808Z,3.10
2019-03-11T07:51:52.719Z,3.00
2019-03-11T07:54:21.571Z,3.10
2019-03-11T07:56:50.466Z,3.00
2019-03-11T07:59:19.391Z,3.00
2019-03-11T08:01:48.231Z,3.00
2019-03-11T08:04:17.153Z,3.00
2019-03-11T08:06:46.006Z,3.00
2019-03-11T08:09:14.946Z,3.00
2019-03-11T08:11:43.794Z,2.90
2019-03-11T08:14:12.633Z,2.90
2019-03-11T08:16:41.524Z,2.90
2019-03-11T08:19:10.443Z,3.00
2019-03-11T08:21:39.371Z,3.10
2019-03-11T08:24:08.256Z,3.20
2019-03-11T08:26:37.117Z,3.20
2019-03-11T08:29:06.035Z,3.30
2019-03-11T08:31:34.929Z,3.30
2019-03-11T08:34:03.839Z,3.30
2019-03-11T08:36:32.808Z,3.20
2019-03-11T08:39:01.707Z,3.20
2019-03-11T08:41:30.552Z,3.20
2019-03-11T08:43:59.507Z,3.10
2019-03-11T08:46:28.508Z,3.10
2019-03-11T08:48:57.359Z,3.00
2019-03-11T08:51:26.369Z,2.90
2019-03-11T08:53:55.199Z,2.90
2019-03-11T08:56:24.131Z,3.00
2019-03-11T08:58:53.008Z,2.90
2019-03-11T09:01:21.952Z,2.70
2019-03-11T09:03:50.831Z,2.80
2019-03-11T09:06:19.818Z,2.80
2019-03-11T09:08:48.758Z,2.80
2019-03-11T09:11:17.734Z,2.80
2019-03-11T09:13:46.647Z,2.70
2019-03-11T09:16:15.585Z,2.60
2019-03-11T09:18:44.577Z,2.60
2019-03-11T09:21:13.447Z,2.70
2019-03-11T09:23:42.349Z,2.90
2019-03-11T09:26:11.335Z,3.00
2019-03-11T09:28:40.252Z,3.00
2019-03-11T09:31:09.160Z,3.00
2019-03-11T09:33:38.051Z,2.90
2019-03-11T09:36:07.106Z,2.80
2019-03-11T09:38:36.060Z,2.90
2019-03-11T09:41:05.142Z,3.00
2019-03-11T09:43:34.085Z,3.10
2019-03-11T09:46:03.154Z,3.00
2019-03-11T09:48:32.030Z,3.00
2019-03-11T09:51:00.952Z,3.00
2019-03-11T09:53:29.872Z,3.00
2019-03-11T09:55:58.936Z,3.10
2019-03-11T09:58:27.780Z,3.30
2019-03-11T10:00:56.615Z,3.60
2019-03-11T10:03:25.570Z,3.80
2019-03-11T10:05:54.543Z,4.00
2019-03-11T10:08:23.417Z,4.10
2019-03-11T10:10:52.302Z,4.20
2019-03-11T10:13:21.231Z,4.30
2019-03-11T10:15:50.113Z,4.20
2019-03-11T10:18:18.982Z,4.30
2019-03-11T10:20:47.913Z,4.60
2019-03-11T10:23:16.808Z,4.80
2019-03-11T10:25:45.728Z,4.90
2019-03-11T10:28:14.629Z,4.90
2019-03-11T10:30:43.546Z,4.90
2019-03-11T10:33:12.502Z,4.90
2019-03-11T10:35:41.491Z,4.80
2019-03-11T10:38:10.414Z,4.70
2019-03-11T10:40:39.396Z,4.60
2019-03-11T10:43:08.270Z,4.50
2019-03-11T10:45:37.271Z,4.40
2019-03-11T10:48:06.263Z,4.50
2019-03-11T10:50:35.218Z,4.40
2019-03-11T10:53:04.123Z,4.50
2019-03-11T10:55:33.055Z,4.60
2019-03-11T10:58:02.016Z,4.70
2019-03-11T11:00:31.804Z,4.70
2019-03-11T11:03:00.888Z,4.80
2019-03-11T11:05:29.935Z,4.80
2019-03-11T11:07:58.844Z,4.90
2019-03-11T11:10:27.813Z,5.10
2019-03-11T11:12:56.731Z,5.30
2019-03-11T11:15:25.683Z,5.40
2019-03-11T11:17:54.626Z,5.40
2019-03-11T11:20:23.908Z,5.40
2019-03-11T11:22:53.283Z,5.30
2019-03-11T11:25:22.481Z,5.30
2019-03-11T11:27:51.532Z,5.40
2019-03-11T11:30:21.662Z,5.30
2019-03-11T11:32:50.671Z,5.30
2019-03-11T11:35:19.984Z,5.20
2019-03-11T11:37:49.088Z,5.20
2019-03-11T11:40:20.031Z,5.20
2019-03-11T11:42:49.106Z,5.10
2019-03-11T11:45:18.652Z,5.10
2019-03-11T11:47:47.673Z,5.00
2019-03-11T11:53:49.483Z,5.00
2019-03-11T11:56:19.145Z,4.70
2019-03-11T11:58:48.089Z,4.60
2019-03-11T12:01:16.995Z,4.50
2019-03-11T12:03:45.943Z,4.50
2019-03-11T12:06:14.873Z,4.40
2019-03-11T12:08:43.696Z,4.30
2019-03-11T12:11:12.538Z,4.20
2019-03-11T12:13:41.453Z,3.90
2019-03-11T12:16:10.386Z,3.80
2019-03-11T12:18:39.278Z,3.70
2019-03-11T12:21:08.218Z,3.60
2019-03-11T12:23:45.808Z,3.60
2019-03-11T12:26:07.712Z,3.50
2019-03-11T12:28:36.530Z,3.50
2019-03-11T12:31:05.475Z,3.50
2019-03-11T12:33:34.367Z,3.50
2019-03-11T12:36:03.356Z,3.50
2019-03-11T12:38:32.327Z,3.50
2019-03-11T12:41:01.250Z,3.60
2019-03-11T12:43:30.212Z,3.60
2019-03-11T12:45:59.167Z,3.60
2019-03-11T12:48:27.997Z,3.70
2019-03-11T12:50:56.936Z,3.70
2019-03-11T12:53:25.856Z,3.70
2019-03-11T12:55:54.719Z,3.80
2019-03-11T12:58:23.533Z,3.80
2019-03-11T13:00:52.463Z,3.80
2019-03-11T13:03:27.469Z,3.90
2019-03-11T13:05:56.351Z,4.00
2019-03-11T13:08:25.202Z,4.10
2019-03-11T13:10:54.105Z,4.20
2019-03-11T13:13:23.084Z,4.30
2019-03-11T13:15:52.149Z,4.50
2019-03-11T13:18:38.539Z,4.80
2019-03-11T13:21:43.447Z,5.00
2019-03-11T13:24:12.366Z,5.20
2019-03-11T13:26:41.277Z,5.30
2019-03-11T13:29:10.202Z,5.30
2019-03-11T13:31:39.075Z,5.40
2019-03-11T13:34:07.993Z,5.60
2019-03-11T13:36:37.097Z,5.70
2019-03-11T13:39:07.263Z,5.80
2019-03-11T13:41:36.276Z,5.90
2019-03-11T13:44:05.279Z,6.00
2019-03-11T13:46:34.297Z,6.10
2019-03-11T13:49:04.208Z,6.10
2019-03-11T13:54:15.416Z,6.40
2019-03-11T13:56:44.989Z,6.30
2019-03-11T13:59:33.633Z,6.20
2019-03-11T14:05:36.202Z,6.00
2019-03-11T14:08:15.107Z,5.80
2019-03-11T14:10:56.147Z,5.80
2019-03-11T14:13:26.301Z,5.80
2019-03-11T14:15:57.923Z,5.80
2019-03-11T14:18:37.260Z,5.80
2019-03-11T14:21:25.318Z,5.70
2019-03-11T14:23:48.653Z,5.70
2019-03-11T14:26:19.662Z,5.50
2019-03-11T14:28:49.013Z,5.30
2019-03-11T14:31:18.512Z,5.20
2019-03-11T14:33:51.503Z,4.90
2019-03-11T14:36:36.079Z,4.90
2019-03-11T14:39:09.800Z,4.90
2019-03-11T14:41:51.676Z,5.10
2019-03-11T14:44:31.179Z,5.10
2019-03-11T14:49:31.468Z,5.30
2019-03-11T14:52:00.463Z,5.30
2019-03-11T14:54:29.452Z,5.40
2019-03-11T14:56:58.377Z,5.30
2019-03-11T14:59:27.316Z,5.20
2019-03-11T15:01:56.234Z,5.20
2019-03-11T15:04:25.179Z,5.10
2019-03-11T15:06:54.126Z,5.10
2019-03-11T15:09:22.976Z,5.00
2019-03-11T15:11:51.903Z,4.90
2019-03-11T15:14:20.911Z,4.90
2019-03-11T15:16:49.769Z,4.80
2019-03-11T15:19:18.715Z,4.80
2019-03-11T15:21:47.588Z,4.80
2019-03-11T15:24:16.600Z,4.70
2019-03-11T15:26:45.567Z,4.70
2019-03-11T15:29:14.490Z,4.70
2019-03-11T15:31:43.413Z,4.70
2019-03-11T15:34:12.323Z,4.60
2019-03-11T15:36:41.276Z,4.60
2019-03-11T15:39:10.255Z,4.50
2019-03-11T15:41:39.214Z,4.50
2019-03-11T15:44:08.114Z,4.50
2019-03-11T15:46:39.492Z,4.50
2019-03-11T15:49:07.914Z,4.60
2019-03-11T15:51:37.121Z,4.60
2019-03-11T15:54:06.303Z,4.50
2019-03-11T15:56:35.266Z,4.50
2019-03-11T15:59:04.368Z,4.50
2019-03-11T16:01:33.221Z,4.50
2019-03-11T16:04:02.142Z,4.50
2019-03-11T16:06:31.102Z,4.50
2019-03-11T16:09:01.988Z,4.50
2019-03-11T16:11:30.711Z,4.40
2019-03-11T16:13:59.639Z,4.40
2019-03-11T16:16:28.850Z,4.40
2019-03-11T16:18:57.711Z,4.40
2019-03-11T16:21:26.785Z,4.40
2019-03-11T16:23:55.843Z,4.50
2019-03-11T16:26:24.682Z,4.50
2019-03-11T16:28:53.615Z,4.50
2019-03-11T16:31:22.750Z,4.50
2019-03-11T16:33:51.806Z,4.50
2019-03-11T16:36:20.731Z,4.50
2019-03-11T16:38:49.587Z,4.50
2019-03-11T16:41:18.430Z,4.60
2019-03-11T16:43:47.420Z,4.60
2019-03-11T16:46:16.616Z,4.50
2019-03-11T16:48:45.482Z,4.50
2019-03-11T16:51:14.473Z,4.60
2019-03-11T16:53:43.335Z,4.50
2019-03-11T16:56:12.235Z,4.50
2019-03-11T16:58:41.216Z,4.50
2019-03-11T17:01:11.208Z,4.50
2019-03-11T17:03:40.201Z,4.40
2019-03-11T17:06:09.094Z,4.40
2019-03-11T17:08:38.034Z,4.50
2019-03-11T17:11:07.009Z,4.50
2019-03-11T17:13:35.948Z,4.40
2019-03-11T17:16:04.947Z,4.50
2019-03-11T17:18:33.974Z,4.40
2019-03-11T17:21:03.038Z,4.40
2019-03-11T17:23:32.075Z,4.50
2019-03-11T17:26:01.000Z,4.50
2019-03-11T17:28:29.862Z,4.50
2019-03-11T17:30:59.079Z,4.50
2019-03-11T17:33:27.999Z,4.50
2019-03-11T17:35:56.940Z,4.50
2019-03-11T17:38:25.879Z,4.50
2019-03-11T17:44:33.153Z,4.50
2019-03-11T17:47:04.651Z,4.50
2019-03-11T17:49:34.176Z,4.60
2019-03-11T17:52:05.994Z,4.50
2019-03-11T18:00:00.801Z,4.50
2019-03-11T18:02:30.169Z,4.50
2019-03-11T18:04:59.449Z,4.50
2019-03-11T18:07:28.955Z,4.50
2019-03-11T18:09:58.244Z,4.60
2019-03-11T18:12:27.506Z,4.60
2019-03-11T18:14:56.911Z,4.50
2019-03-11T18:17:26.185Z,4.60
2019-03-11T18:19:55.480Z,4.60
2019-03-11T18:22:24.835Z,4.60
2019-03-11T18:24:54.162Z,4.60
2019-03-11T18:27:23.463Z,4.60
2019-03-11T18:29:52.931Z,4.60
2019-03-11T18:32:22.294Z,4.60
2019-03-11T18:34:51.789Z,4.60
2019-03-11T18:37:21.135Z,4.70
2019-03-11T18:56:24.473Z,4.40
2019-03-11T19:08:09.970Z,4.20
2019-03-11T19:14:25.602Z,4.20
2019-03-11T19:23:47.780Z,4.30
2019-03-11T20:18:47.105Z,4.30
2019-03-11T20:26:50.549Z,4.40
2019-03-11T20:29:23.322Z,4.40
2019-03-11T20:34:35.498Z,4.40
2019-03-11T20:48:19.895Z,4.50
2019-03-11T20:56:25.739Z,4.50
2019-03-11T21:01:50.120Z,4.60
2019-03-11T21:04:22.977Z,4.60
2019-03-11T21:09:35.037Z,4.50
2019-03-11T21:12:04.456Z,4.50
2019-03-11T21:17:09.619Z,4.50
2019-03-11T21:19:38.799Z,4.50
2019-03-11T21:28:46.899Z,4.20
2019-03-11T21:31:18.207Z,4.20
2019-03-11T21:33:58.116Z,4.00
2019-03-11T21:36:20.643Z,4.00
2019-03-11T21:38:49.661Z,4.00
2019-03-11T21:41:18.659Z,3.90
2019-03-11T21:43:47.861Z,4.00
2019-03-11T21:48:52.798Z,4.00
2019-03-11T21:51:22.238Z,4.00
2019-03-11T21:53:51.571Z,4.00
2019-03-11T21:56:20.653Z,4.00
2019-03-11T21:58:50.058Z,4.00
2019-03-11T22:01:19.165Z,4.00
2019-03-11T22:03:48.203Z,3.90
2019-03-11T22:06:17.251Z,3.90
2019-03-11T22:08:46.308Z,3.90
2019-03-11T22:11:15.435Z,3.90
2019-03-11T22:13:44.739Z,3.90
2019-03-11T22:16:13.960Z,3.90
2019-03-11T22:18:43.031Z,3.90
2019-03-11T22:21:12.079Z,3.90
2019-03-11T22:23:42.084Z,3.90
2019-03-11T22:29:09.088Z,3.90
2019-03-11T22:31:38.263Z,4.00
2019-03-11T22:34:09.024Z,4.00
2019-03-11T22:36:39.482Z,4.00
2019-03-11T22:39:08.578Z,4.00
2019-03-11T22:41:37.548Z,4.00
2019-03-11T22:44:06.780Z,4.00
2019-03-11T22:46:36.133Z,4.00
2019-03-11T22:49:05.175Z,4.10
2019-03-11T22:51:34.319Z,4.00
2019-03-11T22:54:03.472Z,4.00
2019-03-11T22:56:32.741Z,4.00
2019-03-11T22:59:01.772Z,4.00
2019-03-11T23:01:31.130Z,4.00
2019-03-11T23:04:00.454Z,3.90
2019-03-11T23:06:29.648Z,4.00
2019-03-11T23:08:58.858Z,4.00
2019-03-11T23:11:28.103Z,4.00
2019-03-11T23:13:57.329Z,4.00
2019-03-11T23:16:26.772Z,4.00
2019-03-11T23:18:55.861Z,4.00
2019-03-11T23:21:24.931Z,4.00
2019-03-11T23:23:54.132Z,4.00
2019-03-11T23:26:23.485Z,4.00
2019-03-11T23:28:52.572Z,4.00
2019-03-11T23:31:21.595Z,4.00
2019-03-11T23:33:51.213Z,4.00
2019-03-11T23:36:20.484Z,4.00
2019-03-11T23:38:49.686Z,4.00
2019-03-11T23:41:19.080Z,4.00
2019-03-11T23:43:48.573Z,4.00
2019-03-11T23:46:17.715Z,4.10
2019-03-11T23:48:46.977Z,4.10
2019-03-11T23:51:16.468Z,4.10
2019-03-11T23:53:45.711Z,4.10
2019-03-11T23:56:14.619Z,4.10
2019-03-11T23:58:43.582Z,4.10
